createdAt,value
2023-04-17T00:03:26.488Z,48.33
2023-04-17T00:08:28.848Z,43.92
2023-04-17T00:13:31.193Z,45.50
2023-04-17T00:18:33.167Z,39.40
2023-04-17T00:23:35.312Z,38.83
2023-04-17T00:28:37.535Z,42.28
2023-04-17T00:33:39.846Z,41.53
2023-04-17T00:38:41.982Z,43.25
2023-04-17T00:43:44.168Z,37.30
2023-04-17T00:48:46.780Z,38.30
2023-04-17T00:53:49.629Z,39.50
2023-04-17T00:58:52.127Z,37.83
2023-04-17T01:03:54.862Z,43.47
2023-04-17T01:08:57.500Z,37.55
2023-04-17T01:13:59.825Z,42.17
2023-04-17T01:19:02.231Z,41.13
2023-04-17T01:24:05.038Z,43.55
2023-04-17T01:29:07.124Z,42.40
2023-04-17T01:34:09.893Z,44.13
2023-04-17T01:39:12.249Z,47.17
2023-04-17T01:44:14.566Z,49.90
2023-04-17T01:49:17.151Z,44.90
2023-04-17T01:54:20.972Z,45.95
2023-04-17T01:59:23.620Z,46.10
2023-04-17T02:04:25.941Z,43.78
2023-04-17T02:09:28.734Z,47.17
2023-04-17T02:14:31.202Z,42.90
2023-04-17T02:19:33.237Z,49.22
2023-04-17T02:24:38.243Z,49.05
2023-04-17T02:29:41.492Z,44.28
2023-04-17T02:34:43.737Z,44.97
2023-04-17T02:39:47.999Z,55.08
2023-04-17T02:44:50.430Z,44.13
2023-04-17T02:49:53.000Z,42.53
2023-04-17T02:54:56.582Z,42.33
2023-04-17T03:00:01.381Z,38.53
2023-04-17T03:05:04.737Z,41.95
2023-04-17T03:10:08.740Z,39.47
2023-04-17T03:15:11.221Z,37.08
2023-04-17T03:20:15.612Z,36.00
2023-04-17T03:25:17.733Z,31.30
2023-04-17T03:30:27.108Z,29.60
2023-04-17T03:35:32.135Z,36.65
2023-04-17T03:40:34.779Z,29.92
2023-04-17T03:45:37.092Z,32.63
2023-04-17T03:50:39.387Z,31.95
2023-04-17T03:55:41.537Z,33.00
2023-04-17T04:00:49.905Z,29.42
2023-04-17T04:05:52.232Z,30.20
2023-04-17T04:10:54.690Z,35.63
2023-04-17T04:16:17.138Z,31.42
2023-04-17T04:21:19.286Z,33.95
2023-04-17T04:26:21.764Z,33.22
2023-04-17T04:31:30.479Z,35.13
2023-04-17T04:36:36.451Z,35.88
2023-04-17T04:41:51.545Z,35.83
2023-04-17T04:46:56.159Z,39.42
2023-04-17T04:51:58.488Z,36.42
2023-04-17T04:57:06.747Z,41.00
2023-04-17T05:02:10.418Z,41.22
2023-04-17T05:07:13.548Z,41.78
2023-04-17T05:12:19.665Z,43.35
2023-04-17T05:17:21.788Z,43.60
2023-04-17T05:22:27.495Z,38.00
2023-04-17T05:27:41.106Z,38.35
2023-04-17T05:32:44.404Z,36.35
2023-04-17T05:38:01.944Z,36.38
2023-04-17T05:43:11.517Z,37.20
2023-04-17T05:48:15.381Z,34.63
2023-04-17T05:53:17.503Z,34.60
2023-04-17T05:58:25.008Z,39.17
2023-04-17T06:03:31.016Z,36.90
2023-04-17T06:08:40.993Z,35.50
2023-04-17T06:13:43.165Z,36.13
2023-04-17T06:18:45.519Z,39.10
2023-04-17T06:23:48.269Z,37.72
2023-04-17T06:28:52.203Z,40.25
2023-04-17T06:33:54.832Z,39.95
2023-04-17T06:39:02.291Z,43.75
2023-04-17T06:44:05.792Z,40.78
2023-04-17T06:49:22.084Z,40.95
2023-04-17T06:54:25.952Z,37.47
2023-04-17T06:59:27.936Z,42.75
2023-04-17T07:04:31.452Z,38.10
2023-04-17T07:09:33.460Z,39.58
2023-04-17T07:14:35.567Z,39.55
2023-04-17T07:19:37.673Z,39.33
2023-04-17T07:24:39.865Z,37.95
2023-04-17T07:29:42.168Z,37.42
2023-04-17T07:34:44.511Z,40.30
2023-04-17T07:39:49.285Z,34.97
2023-04-17T07:44:51.455Z,35.45
2023-04-17T07:49:53.563Z,37.67
2023-04-17T07:54:56.451Z,34.38
2023-04-17T07:59:58.803Z,37.60
2023-04-17T08:05:02.941Z,34.30
2023-04-17T08:10:05.601Z,37.50
2023-04-17T08:15:08.559Z,35.85
2023-04-17T08:20:13.533Z,38.50
2023-04-17T08:25:15.789Z,40.20
2023-04-17T08:30:19.278Z,35.25
2023-04-17T08:35:21.742Z,42.97
2023-04-17T08:40:26.180Z,40.90
2023-04-17T08:45:28.339Z,45.60
2023-04-17T08:50:31.135Z,41.38
2023-04-17T08:55:33.239Z,38.50
2023-04-17T09:00:43.283Z,37.90
2023-04-17T09:05:46.361Z,37.92
2023-04-17T09:10:51.041Z,40.75
2023-04-17T09:16:05.438Z,41.08
2023-04-17T09:21:07.780Z,38.15
2023-04-17T09:26:11.275Z,35.53
2023-04-17T09:31:19.455Z,36.13
2023-04-17T09:36:22.296Z,39.35
2023-04-17T09:41:25.942Z,39.88
2023-04-17T09:46:45.845Z,41.85
2023-04-17T09:51:49.350Z,36.33
2023-04-17T09:56:55.659Z,38.78
2023-04-17T10:01:57.947Z,34.35
2023-04-17T10:07:00.920Z,38.83
2023-04-17T10:12:05.193Z,33.00
2023-04-17T10:17:28.558Z,35.08
2023-04-17T10:22:31.410Z,33.28
2023-04-17T10:27:33.388Z,32.63
2023-04-17T10:32:36.602Z,29.77
2023-04-17T10:37:48.035Z,32.35
2023-04-17T10:43:15.174Z,27.52
2023-04-17T10:48:28.540Z,27.55
2023-04-17T10:53:41.551Z,29.38
2023-04-17T10:59:01.842Z,28.95
2023-04-17T11:04:04.542Z,30.73
2023-04-17T11:09:10.888Z,24.27
2023-04-17T11:14:17.601Z,26.60
2023-04-17T11:19:24.797Z,25.48
2023-04-17T11:24:31.588Z,26.55
2023-04-17T11:29:33.639Z,30.95
2023-04-17T11:34:37.184Z,27.38
2023-04-17T11:39:42.180Z,25.45
2023-04-17T11:44:44.721Z,27.08
2023-04-17T11:49:46.944Z,24.70
2023-04-17T11:54:57.546Z,24.73
2023-04-17T12:00:12.114Z,25.23
2023-04-17T12:05:18.237Z,22.98
2023-04-17T12:10:20.645Z,23.88
2023-04-17T12:15:22.777Z,26.05
2023-04-17T12:20:26.655Z,24.40
2023-04-17T12:25:28.940Z,23.05
2023-04-17T12:30:31.088Z,25.25
2023-04-17T12:35:33.652Z,23.98
2023-04-17T12:40:35.814Z,21.50
2023-04-17T12:45:39.807Z,21.13
2023-04-17T12:50:43.742Z,23.30
2023-04-17T12:55:45.973Z,22.55
2023-04-17T13:00:48.248Z,19.35
2023-04-17T13:05:52.987Z,25.13
2023-04-17T13:10:56.228Z,22.73
2023-04-17T13:15:58.672Z,26.02
2023-04-17T13:21:00.686Z,22.30
2023-04-17T13:26:02.749Z,21.83
2023-04-17T13:31:04.846Z,19.48
2023-04-17T13:36:07.508Z,22.40
2023-04-17T13:41:09.556Z,20.98
2023-04-17T13:46:15.840Z,15.90
2023-04-17T13:51:17.863Z,16.52
2023-04-17T13:56:23.383Z,17.52
2023-04-17T14:01:25.785Z,17.92
2023-04-17T14:06:28.889Z,18.98
2023-04-17T14:11:30.976Z,12.32
2023-04-17T14:16:33.071Z,13.57
2023-04-17T14:21:35.835Z,12.52
2023-04-17T14:26:38.464Z,13.85
2023-04-17T14:31:40.675Z,14.25
2023-04-17T14:36:43.631Z,13.23
2023-04-17T14:41:46.007Z,15.48
2023-04-17T14:46:48.733Z,13.15
2023-04-17T14:51:50.815Z,10.35
2023-04-17T14:56:53.183Z,9.35
2023-04-17T15:01:55.627Z,11.10
2023-04-17T15:06:57.978Z,12.43
2023-04-17T15:12:01.769Z,13.35
2023-04-17T15:17:06.816Z,12.18
2023-04-17T15:22:08.925Z,16.08
2023-04-17T15:27:11.562Z,13.68
2023-04-17T15:32:13.666Z,11.35
2023-04-17T15:37:16.150Z,12.65
2023-04-17T15:42:18.325Z,12.40
2023-04-17T15:47:20.391Z,10.82
2023-04-17T15:52:22.582Z,9.82
2023-04-17T15:57:24.684Z,13.52
2023-04-17T16:02:26.825Z,13.43
2023-04-17T16:07:29.095Z,12.93
2023-04-17T16:12:31.201Z,11.95
2023-04-17T16:17:33.276Z,14.50
2023-04-17T16:22:35.449Z,14.95
2023-04-17T16:27:39.247Z,11.93
2023-04-17T16:32:41.339Z,8.88
2023-04-17T16:37:43.364Z,12.65
2023-04-17T16:42:45.440Z,13.73
2023-04-17T16:47:47.484Z,11.85
2023-04-17T16:52:50.311Z,15.85
2023-04-17T16:57:52.432Z,15.40
2023-04-17T17:02:54.500Z,13.20
2023-04-17T17:07:56.620Z,12.20
2023-04-17T17:12:59.113Z,15.68
2023-04-17T17:18:01.164Z,12.90
2023-04-17T17:23:03.375Z,17.10
2023-04-17T17:28:05.446Z,14.30
2023-04-17T17:33:07.612Z,29.40
2023-04-17T17:38:11.814Z,25.65
2023-04-17T17:43:14.063Z,26.63
2023-04-17T17:48:16.919Z,19.25
2023-04-17T17:53:21.406Z,18.27
2023-04-17T17:58:27.612Z,19.08
2023-04-17T18:03:29.835Z,18.45
2023-04-17T18:08:32.018Z,18.67
2023-04-17T18:13:34.133Z,23.02
2023-04-17T18:18:36.464Z,21.67
2023-04-17T18:23:38.697Z,21.25
2023-04-17T18:28:40.793Z,18.42
2023-04-17T18:33:42.917Z,18.48
2023-04-17T18:38:45.035Z,20.58
2023-04-17T18:43:47.230Z,20.65
2023-04-17T18:48:49.418Z,17.38
2023-04-17T18:53:51.645Z,18.70
2023-04-17T18:58:53.914Z,19.70
2023-04-17T19:03:56.120Z,19.20
2023-04-17T19:08:58.109Z,19.63
2023-04-17T19:14:00.221Z,18.73
2023-04-17T19:19:02.420Z,21.58
2023-04-17T19:24:06.805Z,18.25
2023-04-17T19:29:08.799Z,23.60
2023-04-17T19:34:10.809Z,23.05
2023-04-17T19:39:13.144Z,23.90
2023-04-17T19:44:15.396Z,24.83
2023-04-17T19:49:17.414Z,21.52
2023-04-17T19:54:19.509Z,22.63
2023-04-17T19:59:21.620Z,27.90
2023-04-17T20:04:23.912Z,24.75
2023-04-17T20:09:26.119Z,26.63
2023-04-17T20:14:28.132Z,25.73
2023-04-17T20:19:30.193Z,26.00
2023-04-17T20:24:32.332Z,29.92
2023-04-17T20:29:34.402Z,29.90
2023-04-17T20:34:36.474Z,28.13
2023-04-17T20:39:39.276Z,26.20
2023-04-17T20:44:41.375Z,28.27
2023-04-17T20:49:43.400Z,29.85
2023-04-17T20:54:45.550Z,29.98
2023-04-17T20:59:47.855Z,30.10
2023-04-17T21:04:50.378Z,26.33
2023-04-17T21:09:52.641Z,27.77
2023-04-17T21:14:54.642Z,28.02
2023-04-17T21:19:56.705Z,25.23
2023-04-17T21:24:58.890Z,24.52
2023-04-17T21:30:01.481Z,28.63
2023-04-17T21:35:04.440Z,27.17
2023-04-17T21:40:07.045Z,25.63
2023-04-17T21:45:09.569Z,29.17
2023-04-17T21:50:11.906Z,25.27
2023-04-17T21:55:14.049Z,24.70
2023-04-17T22:00:17.542Z,26.88
2023-04-17T22:05:19.692Z,26.30
2023-04-17T22:10:22.061Z,29.45
2023-04-17T22:15:24.293Z,29.23
2023-04-17T22:21:03.995Z,28.63
2023-04-17T22:26:24.426Z,28.50
2023-04-17T22:31:45.227Z,30.23
2023-04-17T22:37:24.464Z,34.30
2023-04-17T22:43:03.276Z,30.67
2023-04-17T22:48:24.740Z,26.08
2023-04-17T22:53:46.602Z,27.67
2023-04-17T22:59:07.386Z,28.48
2023-04-17T23:04:46.308Z,30.48
2023-04-17T23:10:02.243Z,22.10
2023-04-17T23:15:05.013Z,29.67
2023-04-17T23:20:07.437Z,28.40
2023-04-17T23:25:09.826Z,25.98
2023-04-17T23:30:12.381Z,29.40
2023-04-17T23:35:14.402Z,28.13
2023-04-17T23:40:16.422Z,33.30
2023-04-17T23:45:18.524Z,23.88
2023-04-17T23:50:20.657Z,27.80
2023-04-17T23:55:23.089Z,26.75
